createdAt,value
2019-02-14T00:01:51.200Z,34.60
2019-02-14T00:04:57.974Z,34.50
2019-02-14T00:08:04.748Z,31.93
2019-02-14T00:11:11.533Z,29.33
2019-02-14T00:14:18.276Z,31.20
2019-02-14T00:17:25.059Z,33.30
2019-02-14T00:20:31.820Z,32.40
2019-02-14T00:23:38.602Z,28.10
2019-02-14T00:26:45.328Z,27.80
2019-02-14T00:29:52.074Z,28.90
2019-02-14T00:32:58.950Z,29.93
2019-02-14T00:36:05.766Z,32.50
2019-02-14T00:39:12.528Z,29.37
2019-02-14T00:42:19.306Z,27.20
2019-02-14T00:45:26.099Z,28.33
2019-02-14T00:48:32.933Z,29.30
2019-02-14T00:51:39.732Z,30.00
2019-02-14T00:54:46.560Z,28.50
2019-02-14T00:57:53.720Z,28.53
2019-02-14T01:01:00.568Z,28.50
2019-02-14T01:04:09.120Z,28.70
2019-02-14T01:07:15.864Z,29.03
2019-02-14T01:10:22.694Z,27.87
2019-02-14T01:13:29.503Z,28.67
2019-02-14T01:16:36.233Z,29.07
2019-02-14T01:19:42.952Z,26.90
2019-02-14T01:22:49.761Z,30.53
2019-02-14T01:25:56.520Z,30.93
2019-02-14T01:29:03.250Z,27.80
2019-02-14T01:32:10.039Z,29.67
2019-02-14T01:35:16.784Z,28.23
2019-02-14T01:38:23.557Z,27.30
2019-02-14T01:41:30.270Z,28.37
2019-02-14T01:44:37.222Z,30.90
2019-02-14T01:47:45.349Z,30.43
2019-02-14T01:50:52.103Z,32.10
2019-02-14T01:53:58.914Z,28.63
2019-02-14T01:57:05.744Z,29.20
2019-02-14T02:00:15.018Z,29.87
2019-02-14T02:03:22.749Z,31.20
2019-02-14T02:06:30.080Z,30.93
2019-02-14T02:09:36.912Z,28.80
2019-02-14T02:12:43.747Z,30.77
2019-02-14T02:15:50.700Z,30.63
2019-02-14T02:18:57.471Z,32.53
2019-02-14T02:22:04.302Z,32.90
2019-02-14T02:25:11.774Z,30.90
2019-02-14T02:28:18.936Z,29.97
2019-02-14T02:31:25.728Z,31.53
2019-02-14T02:34:32.557Z,30.63
2019-02-14T02:37:39.646Z,29.20
2019-02-14T02:40:46.742Z,29.13
2019-02-14T02:43:53.480Z,30.87
2019-02-14T02:47:01.375Z,28.87
2019-02-14T02:50:10.145Z,29.50
2019-02-14T02:53:16.874Z,31.00
2019-02-14T02:56:23.588Z,29.37
2019-02-14T02:59:30.472Z,30.60
2019-02-14T03:02:37.183Z,33.33
2019-02-14T03:05:43.969Z,30.80
2019-02-14T03:08:52.335Z,32.70
2019-02-14T03:11:59.468Z,30.90
2019-02-14T03:15:06.873Z,33.10
2019-02-14T03:18:14.080Z,31.10
2019-02-14T03:21:20.868Z,29.60
2019-02-14T03:24:27.692Z,30.87
2019-02-14T03:27:34.764Z,28.70
2019-02-14T03:30:41.538Z,31.13
2019-02-14T03:33:48.332Z,28.20
2019-02-14T03:36:55.084Z,28.03
2019-02-14T03:40:01.846Z,26.47
2019-02-14T03:43:09.156Z,26.70
2019-02-14T03:46:15.884Z,28.20
2019-02-14T03:49:22.666Z,25.90
2019-02-14T03:52:29.824Z,29.27
2019-02-14T03:55:36.597Z,27.13
2019-02-14T03:58:43.469Z,27.00
2019-02-14T04:01:50.196Z,27.47
2019-02-14T04:04:56.918Z,26.50
2019-02-14T04:08:03.678Z,26.40
2019-02-14T04:11:10.526Z,26.00
2019-02-14T04:14:17.268Z,26.80
2019-02-14T04:17:24.090Z,27.70
2019-02-14T04:20:30.848Z,29.90
2019-02-14T04:23:37.588Z,27.40
2019-02-14T04:26:44.326Z,27.90
2019-02-14T04:29:51.180Z,30.30
2019-02-14T04:32:57.978Z,28.73
2019-02-14T04:36:04.738Z,28.63
2019-02-14T04:39:11.460Z,28.30
2019-02-14T04:42:18.290Z,29.37
2019-02-14T04:45:25.020Z,30.50
2019-02-14T04:48:31.834Z,28.93
2019-02-14T04:51:38.580Z,32.53
2019-02-14T04:54:45.310Z,34.27
2019-02-14T04:57:52.098Z,30.63
2019-02-14T05:01:00.775Z,26.20
2019-02-14T05:04:07.649Z,25.63
2019-02-14T05:07:14.401Z,27.33
2019-02-14T05:10:21.157Z,27.77
2019-02-14T05:13:27.881Z,27.93
2019-02-14T05:16:34.661Z,25.83
2019-02-14T05:19:42.439Z,26.50
2019-02-14T05:22:49.172Z,24.97
2019-02-14T05:25:56.013Z,24.67
2019-02-14T05:29:02.719Z,28.73
2019-02-14T05:32:09.540Z,30.90
2019-02-14T05:35:16.375Z,28.07
2019-02-14T05:38:23.118Z,27.50
2019-02-14T05:41:29.912Z,28.17
2019-02-14T05:44:36.679Z,29.80
2019-02-14T05:47:43.454Z,28.67
2019-02-14T05:50:50.246Z,31.83
2019-02-14T05:53:57.005Z,29.17
2019-02-14T05:57:03.791Z,28.10
2019-02-14T06:00:12.356Z,31.43
2019-02-14T06:03:19.224Z,30.80
2019-02-14T06:06:25.973Z,30.60
2019-02-14T06:09:32.825Z,30.77
2019-02-14T06:12:39.629Z,31.80
2019-02-14T06:15:46.392Z,32.70
2019-02-14T06:18:53.237Z,36.10
2019-02-14T06:22:00.055Z,39.23
2019-02-14T06:25:07.026Z,36.20
2019-02-14T06:28:13.772Z,37.27
2019-02-14T06:31:20.642Z,44.80
2019-02-14T06:34:27.372Z,49.27
2019-02-14T06:37:34.233Z,55.93
2019-02-14T06:40:41.097Z,52.80
2019-02-14T06:43:47.845Z,43.40
2019-02-14T06:46:54.919Z,42.17
2019-02-14T06:50:01.656Z,39.20
2019-02-14T06:53:08.550Z,35.30
2019-02-14T06:56:15.268Z,44.13
2019-02-14T06:59:22.117Z,42.17
2019-02-14T07:02:28.990Z,42.07
2019-02-14T07:05:35.777Z,42.00
2019-02-14T07:08:42.625Z,39.43
2019-02-14T07:11:50.540Z,38.70
2019-02-14T07:14:57.501Z,39.53
2019-02-14T07:18:04.627Z,41.00
2019-02-14T07:21:11.413Z,38.47
2019-02-14T07:24:18.179Z,36.13
2019-02-14T07:27:24.977Z,37.30
2019-02-14T07:30:31.789Z,37.60
2019-02-14T07:33:38.558Z,39.00
2019-02-14T07:36:45.434Z,48.30
2019-02-14T07:39:52.293Z,38.30
2019-02-14T07:42:59.121Z,39.87
2019-02-14T07:46:05.959Z,41.50
2019-02-14T07:49:12.726Z,39.30
2019-02-14T07:52:25.012Z,39.10
2019-02-14T07:55:28.244Z,45.97
2019-02-14T07:58:35.058Z,38.97
2019-02-14T08:01:41.875Z,42.27
2019-02-14T08:04:48.723Z,43.93
2019-02-14T08:07:55.489Z,43.30
2019-02-14T08:11:02.198Z,48.13
2019-02-14T08:14:10.337Z,45.30
2019-02-14T08:17:17.109Z,40.47
2019-02-14T08:20:25.518Z,43.70
2019-02-14T08:23:32.401Z,45.67
2019-02-14T08:26:39.114Z,47.43
2019-02-14T08:29:47.564Z,50.53
2019-02-14T08:32:54.373Z,46.40
2019-02-14T08:36:01.301Z,45.53
2019-02-14T08:39:08.103Z,40.90
2019-02-14T08:42:14.840Z,47.70
2019-02-14T08:45:21.673Z,47.40
2019-02-14T08:48:28.463Z,51.90
2019-02-14T08:51:35.499Z,52.83
2019-02-14T08:54:42.284Z,52.70
2019-02-14T08:57:49.193Z,51.97
2019-02-14T09:00:55.838Z,50.90
2019-02-14T09:04:02.591Z,52.03
2019-02-14T09:07:11.247Z,49.33
2019-02-14T09:10:18.274Z,47.47
2019-02-14T09:13:25.014Z,48.30
2019-02-14T09:16:31.781Z,51.00
2019-02-14T09:19:38.548Z,56.00
2019-02-14T09:22:45.411Z,49.93
2019-02-14T09:25:52.200Z,51.07
2019-02-14T09:28:58.933Z,44.63
2019-02-14T09:32:05.794Z,47.90
2019-02-14T09:35:12.664Z,41.00
2019-02-14T09:38:19.465Z,45.20
2019-02-14T09:41:26.330Z,45.50
2019-02-14T09:44:33.347Z,44.30
2019-02-14T09:47:40.343Z,47.30
2019-02-14T09:50:47.068Z,48.37
2019-02-14T09:53:53.838Z,53.13
2019-02-14T09:57:00.617Z,48.50
2019-02-14T10:00:09.764Z,46.57
2019-02-14T10:03:16.649Z,55.43
2019-02-14T10:06:23.390Z,49.80
2019-02-14T10:09:30.189Z,48.60
2019-02-14T10:12:36.928Z,39.93
2019-02-14T10:15:43.713Z,38.67
2019-02-14T10:18:50.511Z,47.23
2019-02-14T10:21:57.345Z,40.60
2019-02-14T10:25:04.070Z,38.60
2019-02-14T10:28:10.823Z,41.17
2019-02-14T10:31:17.611Z,39.93
2019-02-14T10:34:24.305Z,41.67
2019-02-14T10:37:31.033Z,37.97
2019-02-14T10:40:38.265Z,42.00
2019-02-14T10:43:48.922Z,43.60
2019-02-14T10:46:53.393Z,36.80
2019-02-14T10:50:00.363Z,35.10
2019-02-14T10:53:07.114Z,43.27
2019-02-14T10:56:13.932Z,39.10
2019-02-14T10:59:20.574Z,37.33
2019-02-14T11:02:27.339Z,37.70
2019-02-14T11:05:35.648Z,46.70
2019-02-14T11:08:42.389Z,46.27
2019-02-14T11:11:49.138Z,42.87
2019-02-14T11:14:55.977Z,44.53
2019-02-14T11:18:02.718Z,48.80
2019-02-14T11:21:09.518Z,46.13
2019-02-14T11:24:16.273Z,50.50
2019-02-14T11:27:23.161Z,64.30
2019-02-14T11:30:29.945Z,76.10
2019-02-14T11:33:36.748Z,47.73
2019-02-14T11:36:44.568Z,41.47
2019-02-14T11:39:51.344Z,45.23
2019-02-14T11:42:58.115Z,41.07
2019-02-14T11:46:04.830Z,36.97
2019-02-14T11:49:11.565Z,42.57
2019-02-14T11:52:19.397Z,51.03
2019-02-14T11:55:26.481Z,58.27
2019-02-14T11:58:33.239Z,45.90
2019-02-14T12:01:39.959Z,53.50
2019-02-14T12:04:46.749Z,52.13
2019-02-14T12:07:53.583Z,88.43
2019-02-14T12:11:00.410Z,78.07
2019-02-14T12:14:07.206Z,57.57
2019-02-14T12:17:13.915Z,37.13
2019-02-14T12:20:20.647Z,50.20
2019-02-14T12:23:27.393Z,59.50
2019-02-14T12:26:34.189Z,48.37
2019-02-14T12:29:40.914Z,43.70
2019-02-14T12:32:47.705Z,44.67
2019-02-14T12:35:56.121Z,60.93
2019-02-14T12:39:09.791Z,50.60
2019-02-14T12:42:12.740Z,41.30
2019-02-14T12:45:21.631Z,42.40
2019-02-14T12:48:28.073Z,43.40
2019-02-14T12:51:34.799Z,47.83
2019-02-14T12:54:41.516Z,48.77
2019-02-14T12:57:48.251Z,88.40
2019-02-14T13:00:55.074Z,58.00
2019-02-14T13:04:01.833Z,54.47
2019-02-14T13:07:08.774Z,46.70
2019-02-14T13:10:15.653Z,51.93
2019-02-14T13:13:22.359Z,48.10
2019-02-14T13:16:29.260Z,49.53
2019-02-14T13:19:36.113Z,49.80
2019-02-14T13:22:43.003Z,48.67
2019-02-14T13:25:49.735Z,48.87
2019-02-14T13:28:56.579Z,45.37
2019-02-14T13:32:04.182Z,46.80
2019-02-14T13:35:10.963Z,44.13
2019-02-14T13:38:18.856Z,45.77
2019-02-14T13:41:31.230Z,43.47
2019-02-14T13:44:34.026Z,41.17
2019-02-14T13:47:40.747Z,41.57
2019-02-14T13:50:47.454Z,40.17
2019-02-14T13:53:54.195Z,47.43
2019-02-14T13:57:02.050Z,48.07
2019-02-14T14:00:16.238Z,43.83
2019-02-14T14:03:23.014Z,39.57
2019-02-14T14:06:29.726Z,43.00
2019-02-14T14:09:38.750Z,44.90
2019-02-14T14:12:44.886Z,39.80
2019-02-14T14:15:51.710Z,43.70
2019-02-14T14:19:06.156Z,47.30
2019-02-14T14:22:06.933Z,50.73
2019-02-14T14:25:13.652Z,48.57
2019-02-14T14:28:20.526Z,52.27
2019-02-14T14:31:27.225Z,49.80
2019-02-14T14:34:34.034Z,46.83
2019-02-14T14:37:41.244Z,48.60
2019-02-14T14:40:48.006Z,49.87
2019-02-14T14:44:01.386Z,56.87
2019-02-14T14:47:11.755Z,61.83
2019-02-14T14:50:18.500Z,65.50
2019-02-14T14:53:25.294Z,52.17
2019-02-14T14:56:32.051Z,59.60
2019-02-14T14:59:38.830Z,56.70
2019-02-14T15:02:45.631Z,62.10
2019-02-14T15:05:52.345Z,65.47
2019-02-14T15:08:59.218Z,61.40
2019-02-14T15:12:05.985Z,62.00
2019-02-14T15:15:12.764Z,57.53
2019-02-14T15:18:19.575Z,61.60
2019-02-14T15:21:26.488Z,59.60
2019-02-14T15:24:33.217Z,59.07
2019-02-14T15:27:39.970Z,70.07
2019-02-14T15:30:46.700Z,68.80
2019-02-14T15:33:53.512Z,63.33
2019-02-14T15:37:00.530Z,54.37
2019-02-14T15:40:09.553Z,53.50
2019-02-14T15:43:15.812Z,73.20
2019-02-14T15:46:22.672Z,55.87
2019-02-14T15:49:30.348Z,59.33
2019-02-14T15:52:37.316Z,79.70
2019-02-14T15:55:45.868Z,85.30
2019-02-14T15:58:54.700Z,71.07
2019-02-14T16:02:01.083Z,80.00
2019-02-14T16:05:07.896Z,83.10
2019-02-14T16:08:14.630Z,74.87
2019-02-14T16:11:21.379Z,66.27
2019-02-14T16:14:28.234Z,69.27
2019-02-14T16:17:35.434Z,73.10
2019-02-14T16:20:44.260Z,71.20
2019-02-14T16:23:53.023Z,69.03
2019-02-14T16:27:01.174Z,59.53
2019-02-14T16:30:11.245Z,62.20
2019-02-14T16:33:18.048Z,59.30
2019-02-14T16:36:24.836Z,58.33
2019-02-14T16:39:31.622Z,57.60
2019-02-14T16:42:38.470Z,60.10
2019-02-14T16:45:45.217Z,69.03
2019-02-14T16:48:53.653Z,64.80
2019-02-14T16:52:00.440Z,68.60
2019-02-14T16:55:07.283Z,65.40
2019-02-14T16:58:15.156Z,64.60
2019-02-14T17:01:21.949Z,74.67
2019-02-14T17:04:28.718Z,71.33
2019-02-14T17:07:35.487Z,104.20
2019-02-14T17:10:42.230Z,107.10
2019-02-14T17:13:49.060Z,123.40
2019-02-14T17:16:57.250Z,97.40
2019-02-14T17:20:04.253Z,92.07
2019-02-14T17:23:11.029Z,77.57
2019-02-14T17:26:17.872Z,94.67
2019-02-14T17:29:24.710Z,120.97
2019-02-14T17:32:31.445Z,119.00
2019-02-14T17:35:39.279Z,84.30
2019-02-14T17:38:46.064Z,121.97
2019-02-14T17:41:52.766Z,77.30
2019-02-14T17:44:59.625Z,81.27
2019-02-14T17:48:06.395Z,90.13
2019-02-14T17:51:13.150Z,213.30
2019-02-14T17:54:19.955Z,197.47
2019-02-14T17:57:26.749Z,131.33
2019-02-14T18:00:33.498Z,135.80
2019-02-14T18:03:40.491Z,138.00
2019-02-14T18:06:47.273Z,170.50
2019-02-14T18:09:54.070Z,111.07
2019-02-14T18:13:00.885Z,94.00
2019-02-14T18:16:07.787Z,170.50
2019-02-14T18:19:14.581Z,142.13
2019-02-14T18:22:21.293Z,199.70
2019-02-14T18:25:28.098Z,157.53
2019-02-14T18:28:34.918Z,163.57
2019-02-14T18:31:41.796Z,203.43
2019-02-14T18:34:48.688Z,161.20
2019-02-14T18:37:55.479Z,126.27
2019-02-14T18:41:04.373Z,246.53
2019-02-14T18:44:11.480Z,214.17
2019-02-14T18:47:18.363Z,196.43
2019-02-14T18:50:25.204Z,193.53
2019-02-14T18:53:32.152Z,161.53
2019-02-14T19:00:08.141Z,127.43
2019-02-14T19:12:42.185Z,116.50
2019-02-14T19:15:49.039Z,140.57
2019-02-14T19:18:55.911Z,153.63
2019-02-14T19:22:02.739Z,175.73
2019-02-14T19:25:09.653Z,108.17
2019-02-14T19:28:16.565Z,121.50
2019-02-14T19:31:23.590Z,79.20
2019-02-14T19:34:30.447Z,103.30
2019-02-14T19:37:37.675Z,106.70
2019-02-14T19:40:44.484Z,121.37
2019-02-14T19:43:51.338Z,111.77
2019-02-14T19:46:59.727Z,123.30
2019-02-14T19:50:07.753Z,89.33
2019-02-14T19:53:14.513Z,83.20
2019-02-14T19:56:21.313Z,92.67
2019-02-14T19:59:28.108Z,119.03
2019-02-14T20:02:34.905Z,107.70
2019-02-14T20:05:41.673Z,99.30
2019-02-14T20:08:48.430Z,123.60
2019-02-14T20:11:55.324Z,135.63
2019-02-14T20:15:02.148Z,140.90
2019-02-14T20:18:09.110Z,153.50
2019-02-14T20:21:15.909Z,110.77
2019-02-14T20:24:22.907Z,122.23
2019-02-14T20:27:29.720Z,146.87
2019-02-14T20:30:36.611Z,153.10
2019-02-14T20:33:43.585Z,204.13
2019-02-14T20:36:51.742Z,133.97
2019-02-14T20:39:58.515Z,71.50
2019-02-14T20:43:06.244Z,113.93
2019-02-14T20:46:13.250Z,143.77
2019-02-14T20:49:20.039Z,132.40
2019-02-14T20:52:26.952Z,102.60
2019-02-14T20:55:33.872Z,111.17
2019-02-14T20:58:42.822Z,150.53
2019-02-14T21:01:49.662Z,167.87
2019-02-14T21:04:56.476Z,127.73
2019-02-14T21:08:03.264Z,94.33
2019-02-14T21:11:10.046Z,99.60
2019-02-14T21:14:16.958Z,98.00
2019-02-14T21:17:23.812Z,81.63
2019-02-14T21:20:30.581Z,89.33
2019-02-14T21:23:37.445Z,95.30
2019-02-14T21:26:44.616Z,94.97
2019-02-14T21:29:51.414Z,79.50
2019-02-14T21:32:58.325Z,80.40
2019-02-14T21:36:05.316Z,85.03
2019-02-14T21:39:12.260Z,92.43
2019-02-14T21:42:22.052Z,96.40
2019-02-14T21:45:27.688Z,96.47
2019-02-14T21:48:34.437Z,87.53
2019-02-14T21:51:41.347Z,93.33
2019-02-14T21:54:48.351Z,101.13
2019-02-14T21:57:55.131Z,110.67
2019-02-14T22:01:01.927Z,100.13
2019-02-14T22:04:08.943Z,109.73
2019-02-14T22:07:16.482Z,104.80
2019-02-14T22:10:23.424Z,98.47
2019-02-14T22:13:30.353Z,91.17
2019-02-14T22:16:37.322Z,98.13
2019-02-14T22:19:44.412Z,89.77
2019-02-14T22:22:51.363Z,92.67
2019-02-14T22:25:58.221Z,92.10
2019-02-14T22:29:05.316Z,101.87
2019-02-14T22:32:12.374Z,114.07
2019-02-14T22:35:19.341Z,108.80
2019-02-14T22:38:26.193Z,121.63
2019-02-14T22:41:33.149Z,119.00
2019-02-14T22:44:40.289Z,99.73
2019-02-14T22:47:47.298Z,92.80
2019-02-14T22:50:54.157Z,126.80
2019-02-14T22:54:01.288Z,129.00
2019-02-14T22:57:08.281Z,112.27
2019-02-14T23:00:30.204Z,102.50
2019-02-14T23:03:37.994Z,92.40
2019-02-14T23:06:44.903Z,90.40
2019-02-14T23:09:51.797Z,93.77
2019-02-14T23:12:58.800Z,92.30
2019-02-14T23:16:05.681Z,85.83
2019-02-14T23:19:12.824Z,89.17
2019-02-14T23:22:20.079Z,85.13
2019-02-14T23:25:26.984Z,90.73
2019-02-14T23:28:34.014Z,81.20
2019-02-14T23:31:40.882Z,92.67
2019-02-14T23:34:47.710Z,90.53
2019-02-14T23:37:54.835Z,87.57
2019-02-14T23:41:01.749Z,87.60
2019-02-14T23:44:08.703Z,85.70
2019-02-14T23:47:15.724Z,85.70
2019-02-14T23:50:22.523Z,86.67
2019-02-14T23:53:29.462Z,85.57
2019-02-14T23:56:36.329Z,93.57
2019-02-14T23:59:43.225Z,92.37
